createdAt,value
2018-05-26T00:01:39.683Z,21.22
2018-05-26T00:06:41.116Z,21.30
2018-05-26T00:11:42.434Z,21.10
2018-05-26T00:16:43.837Z,21.05
2018-05-26T00:21:45.898Z,20.86
2018-05-26T00:26:47.207Z,20.71
2018-05-26T00:31:48.505Z,20.73
2018-05-26T00:36:49.826Z,20.72
2018-05-26T00:41:51.905Z,20.69
2018-05-26T00:46:53.215Z,20.63
2018-05-26T00:51:55.291Z,20.45
2018-05-26T00:56:56.597Z,20.26
2018-05-26T01:01:58.148Z,20.17
2018-05-26T01:07:00.373Z,19.92
2018-05-26T01:12:01.888Z,19.89
2018-05-26T01:17:06.353Z,19.89
2018-05-26T01:22:08.890Z,19.95
2018-05-26T01:27:10.987Z,19.98
2018-05-26T01:32:13.040Z,19.91
2018-05-26T01:37:14.360Z,19.76
2018-05-26T01:42:15.672Z,19.71
2018-05-26T01:47:17.721Z,19.57
2018-05-26T01:52:19.022Z,19.64
2018-05-26T01:57:20.325Z,19.60
2018-05-26T02:02:21.635Z,19.69
2018-05-26T02:07:22.938Z,19.48
2018-05-26T02:12:25.512Z,19.44
2018-05-26T02:17:27.610Z,19.31
2018-05-26T02:22:28.921Z,19.30
2018-05-26T02:27:30.217Z,19.25
2018-05-26T02:32:31.961Z,19.22
2018-05-26T02:37:33.301Z,18.94
2018-05-26T02:42:34.629Z,18.92
2018-05-26T02:47:35.994Z,18.93
2018-05-26T02:52:37.329Z,18.87
2018-05-26T02:57:38.701Z,18.73
2018-05-26T03:02:40.751Z,18.72
2018-05-26T03:07:48.266Z,18.59
2018-05-26T03:12:55.873Z,18.76
2018-05-26T03:17:58.770Z,18.49
2018-05-26T03:23:07.097Z,18.55
2018-05-26T03:28:08.421Z,18.25
2018-05-26T03:33:09.726Z,18.14
2018-05-26T03:38:11.761Z,18.06
2018-05-26T03:43:13.065Z,18.08
2018-05-26T03:48:14.369Z,18.01
2018-05-26T03:53:15.709Z,18.10
2018-05-26T03:58:36.309Z,18.29
2018-05-26T04:03:37.634Z,18.30
2018-05-26T04:08:39.713Z,18.28
2018-05-26T04:13:41.018Z,18.39
2018-05-26T04:18:43.067Z,18.35
2018-05-26T04:23:45.182Z,18.65
2018-05-26T04:28:46.501Z,18.88
2018-05-26T04:33:47.914Z,18.82
2018-05-26T04:38:49.226Z,18.80
2018-05-26T04:43:50.539Z,18.88
2018-05-26T04:48:51.845Z,18.97
2018-05-26T04:53:53.222Z,19.05
2018-05-26T04:58:54.551Z,19.26
2018-05-26T05:03:55.922Z,19.54
2018-05-26T05:08:57.282Z,19.89
2018-05-26T05:13:58.609Z,19.88
2018-05-26T05:18:59.952Z,20.13
2018-05-26T05:24:05.206Z,20.33
2018-05-26T05:29:06.617Z,20.28
2018-05-26T05:34:08.013Z,20.61
2018-05-26T05:39:09.691Z,20.84
2018-05-26T05:44:11.066Z,20.95
2018-05-26T05:49:12.392Z,21.13
2018-05-26T05:54:13.695Z,21.42
2018-05-26T05:59:14.998Z,21.55
2018-05-26T06:04:16.341Z,21.42
2018-05-26T06:09:18.373Z,21.80
2018-05-26T06:14:19.682Z,21.94
2018-05-26T06:19:20.999Z,22.16
2018-05-26T06:24:22.467Z,22.26
2018-05-26T06:29:23.797Z,22.51
2018-05-26T06:34:26.094Z,22.65
2018-05-26T06:39:27.402Z,22.92
2018-05-26T06:44:29.478Z,23.39
2018-05-26T06:49:30.807Z,23.41
2018-05-26T06:54:32.884Z,23.69
2018-05-26T06:59:34.695Z,23.60
2018-05-26T07:04:36.042Z,23.65
2018-05-26T07:09:37.401Z,23.88
2018-05-26T07:14:38.693Z,23.86
2018-05-26T07:19:40.010Z,23.98
2018-05-26T07:24:41.330Z,24.02
2018-05-26T07:29:42.679Z,24.03
2018-05-26T07:34:44.030Z,24.10
2018-05-26T07:39:46.104Z,24.49
2018-05-26T07:44:47.408Z,24.79
2018-05-26T07:49:48.763Z,24.86
2018-05-26T07:54:50.100Z,24.95
2018-05-26T07:59:52.182Z,24.99
2018-05-26T08:04:53.859Z,25.30
2018-05-26T08:09:55.287Z,25.52
2018-05-26T08:14:56.593Z,25.64
2018-05-26T08:19:58.681Z,25.73
2018-05-26T08:25:00.144Z,25.99
2018-05-26T08:30:01.624Z,26.12
2018-05-26T08:35:02.974Z,26.18
2018-05-26T08:40:05.059Z,26.47
2018-05-26T08:45:06.429Z,26.88
2018-05-26T08:50:07.738Z,27.18
2018-05-26T08:55:09.078Z,27.13
2018-05-26T09:00:10.385Z,27.30
2018-05-26T09:05:11.686Z,27.47
2018-05-26T09:10:13.007Z,27.61
2018-05-26T09:15:15.086Z,27.25
2018-05-26T09:20:16.562Z,27.47
2018-05-26T09:25:17.975Z,27.64
2018-05-26T09:30:19.382Z,27.78
2018-05-26T09:35:20.674Z,28.05
2018-05-26T09:40:22.072Z,28.18
2018-05-26T09:45:23.426Z,28.26
2018-05-26T09:50:24.740Z,28.29
2018-05-26T09:55:26.062Z,28.30
2018-05-26T10:00:28.128Z,28.60
2018-05-26T10:05:29.486Z,28.85
2018-05-26T10:10:30.838Z,28.87
2018-05-26T10:15:32.881Z,29.27
2018-05-26T10:20:35.300Z,29.26
2018-05-26T10:25:36.609Z,29.18
2018-05-26T10:30:38.011Z,29.22
2018-05-26T10:35:39.406Z,29.16
2018-05-26T10:40:40.725Z,29.12
2018-05-26T10:45:42.049Z,29.35
2018-05-26T10:50:43.445Z,29.58
2018-05-26T10:55:44.762Z,29.98
2018-05-26T11:00:46.073Z,30.42
2018-05-26T11:05:48.100Z,30.40
2018-05-26T11:10:49.458Z,30.61
2018-05-26T11:15:51.581Z,30.51
2018-05-26T11:20:56.387Z,30.57
2018-05-26T11:25:58.175Z,30.69
2018-05-26T11:31:04.451Z,30.75
2018-05-26T11:36:06.190Z,30.68
2018-05-26T11:41:07.501Z,30.50
2018-05-26T11:46:08.793Z,30.62
2018-05-26T11:51:10.091Z,30.87
2018-05-26T11:56:11.390Z,30.71
2018-05-26T12:01:12.726Z,31.11
2018-05-26T12:06:14.087Z,31.56
2018-05-26T12:11:16.205Z,31.03
2018-05-26T12:16:17.509Z,31.19
2018-05-26T12:21:18.812Z,31.44
2018-05-26T12:26:20.136Z,31.20
2018-05-26T12:31:21.442Z,31.61
2018-05-26T12:36:23.495Z,31.91
2018-05-26T12:41:24.801Z,31.93
2018-05-26T12:46:26.121Z,31.97
2018-05-26T12:51:28.185Z,32.19
2018-05-26T12:56:29.524Z,32.49
2018-05-26T13:01:31.621Z,32.86
2018-05-26T13:06:32.953Z,33.06
2018-05-26T13:11:34.277Z,32.99
2018-05-26T13:16:35.622Z,33.58
2018-05-26T13:21:36.956Z,33.63
2018-05-26T13:26:38.285Z,33.77
2018-05-26T13:31:40.358Z,34.04
2018-05-26T13:36:41.685Z,33.24
2018-05-26T13:41:43.769Z,32.59
2018-05-26T13:46:45.877Z,32.19
2018-05-26T13:51:47.289Z,33.06
2018-05-26T13:56:48.627Z,33.05
2018-05-26T14:01:49.972Z,33.34
2018-05-26T14:06:51.289Z,34.13
2018-05-26T14:11:52.631Z,33.93
2018-05-26T14:16:53.985Z,33.70
2018-05-26T14:21:55.336Z,33.42
2018-05-26T14:26:56.654Z,32.44
2018-05-26T14:31:57.966Z,31.81
2018-05-26T14:36:59.382Z,31.62
2018-05-26T14:42:01.449Z,32.33
2018-05-26T14:47:02.793Z,33.49
2018-05-26T14:52:04.117Z,33.61
2018-05-26T14:57:05.440Z,34.10
2018-05-26T15:02:06.749Z,34.13
2018-05-26T15:07:08.067Z,33.45
2018-05-26T15:12:09.398Z,33.32
2018-05-26T15:17:10.711Z,33.66
2018-05-26T15:22:12.761Z,34.05
2018-05-26T15:27:14.087Z,33.94
2018-05-26T15:32:15.450Z,33.89
2018-05-26T15:37:16.821Z,33.68
2018-05-26T15:42:18.142Z,33.99
2018-05-26T15:47:19.480Z,34.02
2018-05-26T15:52:20.838Z,33.93
2018-05-26T15:57:22.938Z,34.05
2018-05-26T16:02:24.253Z,34.70
2018-05-26T16:07:26.310Z,35.09
2018-05-26T16:12:28.366Z,34.01
2018-05-26T16:17:29.777Z,33.40
2018-05-26T16:22:32.240Z,33.07
2018-05-26T16:27:33.567Z,32.46
2018-05-26T16:32:35.659Z,32.65
2018-05-26T16:37:37.736Z,32.57
2018-05-26T16:42:39.410Z,32.73
2018-05-26T16:47:40.721Z,32.81
2018-05-26T16:52:42.051Z,33.07
2018-05-26T16:57:44.130Z,33.43
2018-05-26T17:02:45.479Z,33.23
2018-05-26T17:07:46.852Z,33.08
2018-05-26T17:12:48.166Z,32.71
2018-05-26T17:17:49.518Z,32.57
2018-05-26T17:22:51.593Z,32.47
2018-05-26T17:27:52.938Z,32.40
2018-05-26T17:32:54.245Z,32.22
2018-05-26T17:37:55.561Z,31.91
2018-05-26T17:42:56.873Z,31.44
2018-05-26T17:47:58.906Z,31.53
2018-05-26T17:53:00.265Z,31.18
2018-05-26T17:58:02.833Z,31.10
2018-05-26T18:03:04.980Z,31.15
2018-05-26T18:08:06.332Z,30.89
2018-05-26T18:13:07.711Z,30.64
2018-05-26T18:18:09.283Z,30.25
2018-05-26T18:23:11.334Z,30.16
2018-05-26T18:28:12.621Z,30.03
2018-05-26T18:33:13.929Z,29.92
2018-05-26T18:38:15.281Z,29.82
2018-05-26T18:43:16.616Z,29.86
2018-05-26T18:48:17.943Z,29.77
2018-05-26T18:53:20.039Z,29.46
2018-05-26T18:58:22.149Z,29.45
2018-05-26T19:03:24.206Z,29.22
2018-05-26T19:08:25.525Z,28.93
2018-05-26T19:13:26.877Z,28.68
2018-05-26T19:18:28.194Z,28.31
2018-05-26T19:23:29.497Z,28.10
2018-05-26T19:28:30.846Z,27.86
2018-05-26T19:33:32.169Z,27.69
2018-05-26T19:38:33.471Z,27.72
2018-05-26T19:43:35.515Z,27.39
2018-05-26T19:48:36.829Z,26.89
2018-05-26T19:53:38.130Z,26.89
2018-05-26T19:58:39.462Z,26.53
2018-05-26T20:03:41.513Z,26.42
2018-05-26T20:08:42.853Z,26.41
2018-05-26T20:13:44.938Z,26.14
2018-05-26T20:18:46.301Z,26.16
2018-05-26T20:23:47.637Z,25.91
2018-05-26T20:28:49.717Z,25.97
2018-05-26T20:33:51.054Z,25.88
2018-05-26T20:38:52.367Z,25.88
2018-05-26T20:43:53.700Z,25.66
2018-05-26T20:48:55.757Z,25.56
2018-05-26T20:53:57.095Z,25.68
2018-05-26T20:58:59.229Z,25.67
2018-05-26T21:04:00.564Z,25.43
2018-05-26T21:09:01.925Z,25.24
2018-05-26T21:14:03.276Z,25.02
2018-05-26T21:19:05.505Z,24.90
2018-05-26T21:24:06.813Z,24.81
2018-05-26T21:29:08.098Z,24.73
2018-05-26T21:34:09.422Z,24.71
2018-05-26T21:39:10.733Z,24.54
2018-05-26T21:44:12.054Z,24.59
2018-05-26T21:49:13.374Z,24.46
2018-05-26T21:54:14.719Z,24.39
2018-05-26T21:59:16.786Z,24.30
2018-05-26T22:04:18.110Z,24.00
2018-05-26T22:09:20.198Z,24.09
2018-05-26T22:14:21.497Z,24.05
2018-05-26T22:19:23.539Z,24.35
2018-05-26T22:24:24.842Z,24.15
2018-05-26T22:29:26.153Z,23.91
2018-05-26T22:34:27.441Z,23.84
2018-05-26T22:39:28.729Z,23.65
2018-05-26T22:44:30.038Z,23.59
2018-05-26T22:49:31.350Z,23.50
2018-05-26T22:54:33.413Z,23.39
2018-05-26T22:59:34.750Z,23.24
2018-05-26T23:04:36.063Z,23.15
2018-05-26T23:09:37.413Z,23.03
2018-05-26T23:14:39.465Z,22.92
2018-05-26T23:19:40.791Z,22.78
2018-05-26T23:24:42.102Z,22.66
2018-05-26T23:29:44.161Z,22.82
2018-05-26T23:34:45.593Z,22.75
2018-05-26T23:39:47.657Z,22.65
2018-05-26T23:44:48.985Z,22.66
2018-05-26T23:49:50.357Z,22.61
2018-05-26T23:54:51.772Z,22.72
2018-05-26T23:59:53.136Z,22.59
